Time;durP1;ratioP1;P1;durP2;ratioP2;P2;SDS_P1;SDS_P2;PMS_P1;PMS_P2;Temp;Humidity;BMP_temperature;BMP_pressure;BME280_temperature;BME280_humidity;BME280_pressure;Samples;Min_cycle;Max_cycle;Signal;HPM_P1;HPM_P2
2021/04/05 00:01:58;;;;;;;;;;;;;;;1.80;74.42;99957.46;1723071;82;20453;-72
2021/04/05 00:04:26;;;;;;;;;;;;;;;1.79;74.53;99951.88;1734104;81;22313;-71
2021/04/05 00:06:54;;;;;;;;;;;;;;;1.80;74.54;99949.19;1745370;81;20500;-71
2021/04/05 00:09:22;;;;;;;;;;;;;;;1.83;74.59;99956.00;1746704;81;20399;-71
2021/04/05 00:11:50;;;;;;;;;;;;;;;1.82;74.64;99952.55;1745961;82;20308;-71
2021/04/05 00:14:18;;;;;;;;;;;;;;;1.82;74.73;99947.80;1738183;82;20292;-71
2021/04/05 00:16:46;;;;;;;;;;;;;;;1.81;74.80;99950.88;1745593;82;22990;-71
2021/04/05 00:19:14;;;;;;;;;;;;;;;1.83;74.79;99949.48;1746398;81;20378;-71
2021/04/05 00:21:41;;;;;;;;;;;;;;;1.83;74.75;99949.48;1746252;82;20217;-71
2021/04/05 00:24:09;;;;;;;;;;;;;;;1.83;74.73;99942.98;1745700;81;21843;-72
2021/04/05 00:26:37;;;;;;;;;;;;;;;1.82;74.68;99942.59;1742969;81;20986;-71
2021/04/05 00:29:05;;;;;;;;;;;;;;;1.79;74.65;99938.39;1723005;82;22085;-71
2021/04/05 00:31:35;;;;;;;;;;;;;;;1.78;74.71;99938.02;1736680;82;20224;-71
2021/04/05 00:34:04;;;;;;;;;;;;;;;1.78;74.69;99933.27;1746411;81;20229;-71
2021/04/05 00:36:31;;;;;;;;;;;;;;;1.79;74.65;99931.05;1745410;81;20443;-72
2021/04/05 00:38:59;;;;;;;;;;;;;;;1.79;74.62;99938.85;1746146;81;20496;-71
2021/04/05 00:41:27;;;;;;;;;;;;;;;1.79;74.52;99940.16;1745505;81;21892;-72
2021/04/05 00:43:54;;;;;;;;;;;;;;;1.78;74.46;99935.41;1746148;81;22543;-72
2021/04/05 00:46:23;;;;;;;;;;;;;;;1.78;74.40;99934.57;1746448;81;20246;-72
2021/04/05 00:48:50;;;;;;;;;;;;;;;1.76;74.38;99937.72;1725332;82;20318;-71
2021/04/05 00:51:21;;;;;;;;;;;;;;;1.70;74.32;99939.69;1741916;81;20391;-71
2021/04/05 00:53:48;;;;;;;;;;;;;;;1.67;74.29;99932.05;1745750;82;22816;-72
2021/04/05 00:56:18;;;;;;;;;;;;;;;1.64;74.21;99935.23;1745458;82;20391;-72
2021/04/05 00:58:46;;;;;;;;;;;;;;;1.59;74.13;99932.87;1745680;82;20221;-71
2021/04/05 01:01:18;;;;;;;;;;;;;;;1.53;74.03;99928.42;1745031;81;20472;-72
2021/04/05 01:03:45;;;;;;;;;;;;;;;1.48;73.95;99916.95;1745571;81;20217;-71
2021/04/05 01:06:27;;;;;;;;;;;;;;;1.47;73.84;99920.94;1731325;82;21817;-71
2021/04/05 01:08:55;;;;;;;;;;;;;;;1.42;73.68;99926.36;1745500;81;20231;-71
2021/04/05 01:11:24;;;;;;;;;;;;;;;1.37;73.60;99923.15;1745181;81;20213;-72
2021/04/05 01:13:52;;;;;;;;;;;;;;;1.32;73.56;99919.45;1745012;82;21313;-72
2021/04/05 01:16:29;;;;;;;;;;;;;;;1.28;73.62;99920.53;1746668;82;20218;-71
2021/04/05 01:18:57;;;;;;;;;;;;;;;1.23;73.62;99921.66;1746367;81;21962;-73
2021/04/05 01:21:24;;;;;;;;;;;;;;;1.18;73.58;99921.05;1719915;82;20277;-71
2021/04/05 01:23:52;;;;;;;;;;;;;;;1.13;73.50;99915.59;1745206;81;20409;-71
2021/04/05 01:26:19;;;;;;;;;;;;;;;1.07;73.40;99915.07;1743093;82;20304;-71
2021/04/05 01:28:47;;;;;;;;;;;;;;;1.00;73.35;99910.61;1746582;82;20237;-71
2021/04/05 01:31:15;;;;;;;;;;;;;;;0.92;73.39;99917.08;1745283;81;21900;-71
2021/04/05 01:33:43;;;;;;;;;;;;;;;0.84;73.38;99910.94;1746420;82;20355;-71
2021/04/05 01:36:16;;;;;;;;;;;;;;;0.79;73.42;99914.22;1743337;81;20284;-71
2021/04/05 01:38:45;;;;;;;;;;;;;;;0.74;73.41;99910.98;1737960;81;20298;-73
2021/04/05 01:41:23;;;;;;;;;;;;;;;0.68;73.35;99913.88;1733915;81;20241;-71
2021/04/05 01:43:50;;;;;;;;;;;;;;;0.63;73.30;99918.44;1697916;84;22122;-70
2021/04/05 01:46:19;;;;;;;;;;;;;;;0.57;73.35;99915.19;1697595;83;20272;-71
2021/04/05 01:48:47;;;;;;;;;;;;;;;0.53;73.39;99914.95;1698644;83;20237;-70
2021/04/05 01:51:20;;;;;;;;;;;;;;;0.51;73.45;99907.69;1699515;83;20237;-72
2021/04/05 01:53:49;;;;;;;;;;;;;;;0.49;73.64;99908.23;1701302;84;20241;-70
2021/04/05 01:56:18;;;;;;;;;;;;;;;0.50;73.88;99910.36;1700300;83;22136;-70
2021/04/05 01:58:48;;;;;;;;;;;;;;;0.49;73.89;99904.33;1700071;84;20443;-72
2021/04/05 02:01:18;;;;;;;;;;;;;;;0.47;73.90;99903.53;1700416;84;20499;-70
2021/04/05 02:03:47;;;;;;;;;;;;;;;0.45;73.89;99895.42;1700796;84;20317;-70
2021/04/05 02:06:23;;;;;;;;;;;;;;;0.42;73.89;99900.77;1700360;83;20499;-71
2021/04/05 02:08:52;;;;;;;;;;;;;;;0.38;73.91;99907.00;1698525;84;21908;-71
2021/04/05 02:11:23;;;;;;;;;;;;;;;0.32;73.88;99901.64;1690271;83;20405;-72
2021/04/05 02:13:58;;;;;;;;;;;;;;;0.26;73.90;99904.50;1697550;84;20245;-73
2021/04/05 02:16:26;;;;;;;;;;;;;;;0.20;73.85;99896.55;1700815;83;21429;-69
2021/04/05 02:18:57;;;;;;;;;;;;;;;0.15;73.78;99895.89;1679090;83;20190;-70
2021/04/05 02:21:26;;;;;;;;;;;;;;;0.09;73.77;99896.61;1690451;83;22134;-70
2021/04/05 02:23:55;;;;;;;;;;;;;;;0.03;73.76;99887.35;1700913;84;20236;-70
2021/04/05 02:26:24;;;;;;;;;;;;;;;0.01;73.79;99889.64;1683822;84;20231;-69
2021/04/05 02:29:00;;;;;;;;;;;;;;;-0.04;73.80;99890.66;1692003;84;21437;-69
2021/04/05 02:31:29;;;;;;;;;;;;;;;-0.04;74.12;99888.06;1697455;84;20229;-70
2021/04/05 02:33:59;;;;;;;;;;;;;;;-0.03;74.23;99892.34;1699021;84;22078;-70
2021/04/05 02:36:29;;;;;;;;;;;;;;;-0.06;74.22;99884.70;1699307;83;20232;-69
2021/04/05 02:39:00;;;;;;;;;;;;;;;-0.08;74.20;99879.20;1700150;83;20397;-69
2021/04/05 02:41:29;;;;;;;;;;;;;;;-0.14;74.20;99874.26;1700128;84;20475;-69
2021/04/05 02:43:56;;;;;;;;;;;;;;;-0.19;74.18;99874.47;1689074;84;20156;-68
2021/04/05 02:46:27;;;;;;;;;;;;;;;-0.23;74.22;99870.30;1697340;84;22081;-69
2021/04/05 02:48:56;;;;;;;;;;;;;;;-0.24;74.24;99863.89;1697533;84;20477;-69
2021/04/05 02:51:24;;;;;;;;;;;;;;;-0.28;74.26;99860.59;1678660;84;20221;-68
2021/04/05 02:53:57;;;;;;;;;;;;;;;-0.32;74.29;99862.91;1699969;84;20320;-68
2021/04/05 02:56:24;;;;;;;;;;;;;;;-0.36;74.36;99867.86;1698971;84;20496;-68
2021/04/05 02:58:53;;;;;;;;;;;;;;;-0.38;74.45;99864.50;1698830;84;22077;-68
2021/04/05 03:01:20;;;;;;;;;;;;;;;-0.40;74.54;99861.94;1677408;84;20377;-68
2021/04/05 03:03:49;;;;;;;;;;;;;;;-0.34;74.95;99869.47;1698276;84;20241;-68
2021/04/05 03:06:19;;;;;;;;;;;;;;;-0.31;75.04;99863.30;1699888;84;21086;-71
2021/04/05 03:08:48;;;;;;;;;;;;;;;-0.34;74.95;99855.66;1701054;84;20252;-67
2021/04/05 03:11:19;;;;;;;;;;;;;;;-0.38;75.07;99856.25;1700555;84;22809;-67
2021/04/05 03:13:47;;;;;;;;;;;;;;;-0.34;75.33;99858.25;1700084;84;21218;-67
2021/04/05 03:16:19;;;;;;;;;;;;;;;-0.28;75.82;99853.27;1699935;84;20281;-68
2021/04/05 03:18:47;;;;;;;;;;;;;;;-0.22;76.03;99849.93;1689899;84;21359;-68
2021/04/05 03:21:15;;;;;;;;;;;;;;;-0.11;76.29;99855.48;1697243;84;20295;-68
2021/04/05 03:23:43;;;;;;;;;;;;;;;-0.02;76.49;99848.59;1700430;84;21921;-68
2021/04/05 03:26:11;;;;;;;;;;;;;;;0.06;76.57;99838.33;1694368;84;20225;-69
2021/04/05 03:28:39;;;;;;;;;;;;;;;0.12;76.58;99839.37;1699953;84;20392;-68
2021/04/05 03:31:17;;;;;;;;;;;;;;;0.17;76.60;99837.39;1700594;84;21200;-69
2021/04/05 03:33:59;;;;;;;;;;;;;;;0.20;76.65;99835.52;1700883;84;20252;-68
2021/04/05 03:36:29;;;;;;;;;;;;;;;0.25;76.72;99833.98;1700044;84;22950;-68
2021/04/05 03:38:57;;;;;;;;;;;;;;;0.27;76.75;99834.30;1695330;84;20386;-68
2021/04/05 03:41:44;;;;;;;;;;;;;;;0.33;76.81;99831.05;1700234;83;20230;-68
2021/04/05 03:44:19;;;;;;;;;;;;;;;0.35;76.84;99837.01;1698705;84;22556;-68
2021/04/05 03:46:48;;;;;;;;;;;;;;;0.39;76.87;99832.08;1700127;84;20271;-69
2021/04/05 03:49:31;;;;;;;;;;;;;;;0.40;76.90;99839.80;1677832;83;23106;-68
2021/04/05 03:52:21;;;;;;;;;;;;;;;0.47;77.01;99834.67;1880336;74;20241;-69
2021/04/05 03:54:51;;;;;;;;;;;;;;;0.45;77.07;99846.91;1859859;76;20256;-69
2021/04/05 03:57:20;;;;;;;;;;;;;;;0.48;77.10;99840.71;1837050;75;22939;-70
2021/04/05 03:59:51;;;;;;;;;;;;;;;0.48;77.07;99833.79;1843662;76;20288;-72
2021/04/05 04:02:23;;;;;;;;;;;;;;;0.51;77.19;99837.53;1824215;77;20483;-71
2021/04/05 04:05:00;;;;;;;;;;;;;;;0.54;77.26;99839.98;1842119;77;20209;-69
2021/04/05 04:07:33;;;;;;;;;;;;;;;0.57;77.33;99835.09;1845568;76;20394;-75
2021/04/05 04:09:56;;;;;;;;;;;;;;;0.62;77.29;99831.83;1841694;75;22120;-77
2021/04/05 04:12:24;;;;;;;;;;;;;;;0.65;77.25;99842.53;1849427;75;20237;-74
2021/04/05 04:14:52;;;;;;;;;;;;;;;0.69;77.23;99842.79;1860780;77;20205;-76
2021/04/05 04:17:19;;;;;;;;;;;;;;;0.74;77.22;99843.40;1850181;76;20279;-74
2021/04/05 04:19:47;;;;;;;;;;;;;;;0.78;77.20;99843.66;1799045;78;20219;-74
2021/04/05 04:22:14;;;;;;;;;;;;;;;0.82;77.13;99849.92;1795021;77;22085;-73
2021/04/05 04:24:41;;;;;;;;;;;;;;;0.86;77.12;99844.10;1808193;78;20462;-72
2021/04/05 04:27:13;;;;;;;;;;;;;;;0.92;77.05;99845.12;1818220;77;20236;-74
2021/04/05 04:29:41;;;;;;;;;;;;;;;0.97;76.96;99843.16;1805805;78;20226;-73
2021/04/05 04:32:08;;;;;;;;;;;;;;;1.00;76.79;99848.20;1793721;78;20269;-73
2021/04/05 04:34:36;;;;;;;;;;;;;;;0.98;76.64;99843.99;1796342;78;22152;-75
2021/04/05 04:37:04;;;;;;;;;;;;;;;0.96;76.56;99849.70;1815696;78;20402;-73
2021/04/05 04:39:31;;;;;;;;;;;;;;;0.94;76.49;99849.78;1797065;77;20661;-72
2021/04/05 04:41:59;;;;;;;;;;;;;;;0.94;76.44;99851.55;1792762;78;20584;-71
2021/04/05 04:44:27;;;;;;;;;;;;;;;0.96;76.39;99852.30;1814105;77;20299;-73
2021/04/05 04:46:54;;;;;;;;;;;;;;;0.98;76.44;99856.53;1817418;78;22083;-72
2021/04/05 04:49:22;;;;;;;;;;;;;;;1.00;76.47;99853.39;1777916;78;21357;-71
2021/04/05 04:51:49;;;;;;;;;;;;;;;1.02;76.52;99851.56;1788784;79;20401;-72
2021/04/05 04:54:17;;;;;;;;;;;;;;;1.07;76.62;99854.79;1791136;78;20210;-72
2021/04/05 04:56:45;;;;;;;;;;;;;;;1.11;76.70;99852.41;1729007;81;20212;-72
2021/04/05 04:59:13;;;;;;;;;;;;;;;1.20;76.83;99856.78;1796159;78;21895;-71
2021/04/05 05:01:42;;;;;;;;;;;;;;;1.26;76.92;99850.83;1798272;78;20396;-72
2021/04/05 05:04:12;;;;;;;;;;;;;;;1.32;76.96;99849.67;1793490;78;20211;-72
2021/04/05 05:06:39;;;;;;;;;;;;;;;1.39;76.99;99849.75;1809698;78;20244;-72
2021/04/05 05:09:07;;;;;;;;;;;;;;;1.46;76.94;99848.53;1798595;78;20279;-72
2021/04/05 05:11:34;;;;;;;;;;;;;;;1.53;76.92;99848.58;1793064;79;22617;-71
2021/04/05 05:14:02;;;;;;;;;;;;;;;1.60;76.91;99847.83;1793582;78;20360;-73
2021/04/05 05:16:30;;;;;;;;;;;;;;;1.66;76.88;99845.77;1790995;78;20262;-72
2021/04/05 05:18:59;;;;;;;;;;;;;;;1.75;76.90;99844.91;1793700;79;21130;-71
2021/04/05 05:21:35;;;;;;;;;;;;;;;1.82;76.92;99839.28;1796387;78;20205;-69
2021/04/05 05:24:08;;;;;;;;;;;;;;;1.92;76.95;99837.04;1789861;79;21947;-71
2021/04/05 05:26:36;;;;;;;;;;;;;;;2.03;77.01;99841.68;1795879;78;21084;-70
2021/04/05 05:29:10;;;;;;;;;;;;;;;2.12;76.95;99844.64;1816200;78;20490;-71
2021/04/05 05:31:38;;;;;;;;;;;;;;;2.20;76.86;99839.87;1808691;78;21115;-71
2021/04/05 05:34:08;;;;;;;;;;;;;;;2.30;76.83;99835.00;1790126;78;20210;-71
2021/04/05 05:36:37;;;;;;;;;;;;;;;2.39;76.81;99828.45;1811000;78;22591;-70
2021/04/05 05:39:05;;;;;;;;;;;;;;;2.50;76.73;99828.70;1804059;78;20481;-70
2021/04/05 05:42:05;;;;;;;;;;;;;;;2.60;76.68;99820.75;1816294;78;20498;-72
2021/04/05 05:44:46;;;;;;;;;;;;;;;2.73;76.64;99823.08;1792749;78;20220;-73
2021/04/05 05:47:43;;;;;;;;;;;;;;;2.87;76.54;99822.29;1795789;78;20215;-78
2021/04/05 05:50:49;;;;;;;;;;;;;;;3.01;76.52;99824.13;1769898;78;22104;-74
2021/04/05 05:53:29;;;;;;;;;;;;;;;3.14;76.36;99818.11;1791267;78;20218;-76
2021/04/05 05:56:12;;;;;;;;;;;;;;;3.26;76.17;99813.94;1793622;78;20212;-75
2021/04/05 05:59:02;;;;;;;;;;;;;;;3.35;75.97;99818.63;1795668;78;20262;-76
2021/04/05 06:01:54;;;;;;;;;;;;;;;3.43;75.77;99811.19;1796109;79;20256;-73
2021/04/05 06:04:58;;;;;;;;;;;;;;;3.50;75.40;99812.15;1797980;78;21953;-79
2021/04/05 06:07:42;;;;;;;;;;;;;;;3.62;75.04;99811.41;1801862;78;20216;-81
2021/04/05 06:10:31;;;;;;;;;;;;;;;3.74;74.59;99803.67;1802211;78;20274;-82
2021/04/05 06:13:13;;;;;;;;;;;;;;;3.85;74.16;99801.71;1799480;78;20732;-83
2021/04/05 06:16:08;;;;;;;;;;;;;;;3.97;73.84;99801.45;1753616;80;20213;-77
2021/04/05 06:18:51;;;;;;;;;;;;;;;4.12;73.38;99802.27;1759649;80;22122;-80
2021/04/05 06:21:51;;;;;;;;;;;;;;;4.25;72.67;99801.90;1743463;81;20354;-80
2021/04/05 06:24:45;;;;;;;;;;;;;;;4.31;72.14;99795.80;1767712;80;20265;-76
2021/04/05 06:27:34;;;;;;;;;;;;;;;4.41;71.73;99795.22;1760018;80;20231;-81
2021/04/05 06:30:34;;;;;;;;;;;;;;;4.55;71.29;99796.51;1798061;78;20211;-78
2021/04/05 06:33:17;;;;;;;;;;;;;;;4.66;70.66;99795.34;1818098;78;23200;-76
2021/04/05 06:36:08;;;;;;;;;;;;;;;4.82;70.43;99792.09;1817059;78;20259;-74
2021/04/05 06:38:47;;;;;;;;;;;;;;;4.96;69.71;99785.98;1786709;80;20202;-75
2021/04/05 06:41:37;;;;;;;;;;;;;;;5.05;69.17;99793.70;1809324;78;20222;-77
2021/04/05 06:44:37;;;;;;;;;;;;;;;5.15;68.78;99796.08;1792678;78;20274;-75
2021/04/05 06:47:30;;;;;;;;;;;;;;;5.26;68.41;99794.89;1791406;78;22972;-78
2021/04/05 06:50:20;;;;;;;;;;;;;;;5.37;67.92;99787.63;1774991;79;20284;-77
2021/04/05 06:53:00;;;;;;;;;;;;;;;5.51;67.46;99790.16;1794467;79;20405;-76
2021/04/05 06:55:45;;;;;;;;;;;;;;;5.64;66.51;99788.37;1790925;79;20258;-80
2021/04/05 06:58:25;;;;;;;;;;;;;;;5.68;65.30;99779.34;1810871;78;20239;-78
2021/04/05 07:01:29;;;;;;;;;;;;;;;5.69;64.31;99778.44;1817763;79;22852;-78
2021/04/05 07:04:34;;;;;;;;;;;;;;;5.71;64.25;99772.61;1732081;80;20377;-75
2021/04/05 07:07:24;;;;;;;;;;;;;;;5.83;63.62;99768.77;1804870;79;20216;-76
2021/04/05 07:10:07;;;;;;;;;;;;;;;5.94;63.25;99755.78;1754731;80;20313;-75
2021/04/05 07:12:49;;;;;;;;;;;;;;;6.02;62.88;99754.30;1771657;80;20262;-72
2021/04/05 07:15:54;;;;;;;;;;;;;;;6.14;62.12;99754.38;1771453;80;21891;-72
2021/04/05 07:18:59;;;;;;;;;;;;;;;6.22;61.03;99759.45;1779994;80;21077;-74
2021/04/05 07:21:44;;;;;;;;;;;;;;;6.28;60.72;99760.33;1759503;80;20246;-74
2021/04/05 07:24:19;;;;;;;;;;;;;;;6.29;60.28;99756.75;1753918;80;20242;-72
2021/04/05 07:26:50;;;;;;;;;;;;;;;6.27;60.56;99755.17;1781483;80;20309;-73
2021/04/05 07:29:27;;;;;;;;;;;;;;;6.32;60.90;99749.14;1724653;82;21912;-74
2021/04/05 07:32:06;;;;;;;;;;;;;;;6.41;60.93;99751.09;1751670;82;20378;-74
2021/04/05 07:34:50;;;;;;;;;;;;;;;6.52;60.91;99750.31;1765987;80;20284;-77
2021/04/05 07:37:28;;;;;;;;;;;;;;;6.66;61.16;99744.05;1773552;80;20273;-77
2021/04/05 07:40:24;;;;;;;;;;;;;;;6.84;60.50;99738.28;1771491;80;20226;-78
2021/04/05 07:43:14;;;;;;;;;;;;;;;6.97;60.56;99739.55;1774867;80;22199;-76
2021/04/05 07:46:02;;;;;;;;;;;;;;;7.17;60.35;99727.55;1746792;81;20224;-78
2021/04/05 07:48:32;;;;;;;;;;;;;;;7.30;59.56;99726.13;1789740;80;20280;-80
2021/04/05 07:51:22;;;;;;;;;;;;;;;7.37;58.70;99722.92;1765019;80;21606;-76
2021/04/05 07:53:58;;;;;;;;;;;;;;;7.47;58.60;99721.75;1768507;80;20224;-75
2021/04/05 07:56:28;;;;;;;;;;;;;;;7.62;57.90;99718.39;1771394;79;22172;-74
2021/04/05 07:59:16;;;;;;;;;;;;;;;7.65;56.70;99716.38;1767206;80;20391;-76
2021/04/05 08:02:03;;;;;;;;;;;;;;;7.71;56.79;99712.42;1736814;80;20228;-76
2021/04/05 08:04:42;;;;;;;;;;;;;;;7.79;56.10;99706.57;1766335;80;20256;-78
2021/04/05 08:07:22;;;;;;;;;;;;;;;7.83;55.82;99698.34;1779033;79;20271;-75
2021/04/05 08:09:52;;;;;;;;;;;;;;;7.92;55.62;99699.41;1765442;80;22652;-76
2021/04/05 08:12:47;;;;;;;;;;;;;;;7.93;55.25;99703.23;1768446;80;20228;-76
2021/04/05 08:15:37;;;;;;;;;;;;;;;7.95;55.00;99701.31;1764966;80;20232;-75
2021/04/05 08:18:32;;;;;;;;;;;;;;;8.06;54.79;99689.09;1765367;79;20537;-76
2021/04/05 08:21:19;;;;;;;;;;;;;;;8.18;54.29;99681.53;1712176;80;20221;-73
2021/04/05 08:24:12;;;;;;;;;;;;;;;8.25;54.08;99680.09;1784871;79;22839;-74
2021/04/05 08:26:46;;;;;;;;;;;;;;;8.39;53.46;99672.41;1708164;80;20321;-75
2021/04/05 08:29:32;;;;;;;;;;;;;;;8.55;52.98;99676.30;1767942;80;20152;-75
2021/04/05 08:32:19;;;;;;;;;;;;;;;8.68;52.14;99672.65;1770634;80;20908;-76
2021/04/05 08:34:56;;;;;;;;;;;;;;;8.80;52.56;99665.08;1766443;80;20216;-76
2021/04/05 08:37:45;;;;;;;;;;;;;;;8.94;51.74;99660.80;1766024;80;22009;-78
2021/04/05 08:40:19;;;;;;;;;;;;;;;8.95;51.25;99662.94;1742595;80;20402;-80
2021/04/05 08:42:53;;;;;;;;;;;;;;;8.92;51.53;99664.05;1770013;79;20490;-82
2021/04/05 08:45:22;;;;;;;;;;;;;;;8.94;51.33;99658.64;1774662;79;21713;-81
2021/04/05 08:48:07;;;;;;;;;;;;;;;8.90;51.04;99656.76;1789236;80;20225;-83
2021/04/05 08:50:40;;;;;;;;;;;;;;;8.81;50.37;99653.58;1766127;80;22070;-77
2021/04/05 08:53:08;;;;;;;;;;;;;;;8.67;50.19;99650.76;1765266;80;20386;-77
2021/04/05 08:55:38;;;;;;;;;;;;;;;8.51;50.67;99643.31;1775915;80;20187;-83
2021/04/05 08:58:09;;;;;;;;;;;;;;;8.43;50.97;99640.47;1764404;80;20303;-78
2021/04/05 09:00:41;;;;;;;;;;;;;;;8.56;51.77;99636.34;1766012;80;20209;-79
2021/04/05 09:03:11;;;;;;;;;;;;;;;8.76;51.13;99634.20;1765609;80;23749;-77
2021/04/05 09:05:42;;;;;;;;;;;;;;;8.95;51.04;99628.70;1765800;80;21255;-79
2021/04/05 09:08:11;;;;;;;;;;;;;;;9.19;51.91;99627.95;1775307;79;20253;-79
2021/04/05 09:10:45;;;;;;;;;;;;;;;9.51;51.00;99623.84;1771796;80;20472;-77
2021/04/05 09:13:26;;;;;;;;;;;;;;;9.73;49.88;99618.36;1765289;81;20227;-77
2021/04/05 09:16:33;;;;;;;;;;;;;;;9.91;49.61;99613.27;1798295;79;21313;-77
2021/04/05 09:19:27;;;;;;;;;;;;;;;10.09;49.15;99616.08;1778386;79;20978;-77
2021/04/05 09:22:33;;;;;;;;;;;;;;;10.25;48.46;99613.77;1769473;80;20216;-78
2021/04/05 09:25:26;;;;;;;;;;;;;;;10.30;47.65;99608.89;1780221;80;20477;-77
2021/04/05 09:28:12;;;;;;;;;;;;;;;10.19;46.17;99608.17;1766359;80;20215;-75
2021/04/05 09:31:17;;;;;;;;;;;;;;;9.87;46.29;99610.56;1765841;80;23117;-74
2021/04/05 09:33:57;;;;;;;;;;;;;;;9.69;47.04;99599.00;1768712;80;21084;-77
2021/04/05 09:36:51;;;;;;;;;;;;;;;9.64;47.02;99601.19;1767091;80;20487;-78
2021/04/05 09:39:47;;;;;;;;;;;;;;;9.58;47.00;99599.11;1768130;80;20244;-75
2021/04/05 09:42:41;;;;;;;;;;;;;;;9.49;46.66;99594.64;1708538;82;20310;-81
2021/04/05 09:45:11;;;;;;;;;;;;;;;9.33;46.77;99593.81;1768751;80;22070;-76
2021/04/05 09:48:08;;;;;;;;;;;;;;;9.26;46.94;99587.39;1767825;80;20777;-77
2021/04/05 09:50:40;;;;;;;;;;;;;;;9.24;46.65;99578.80;1770551;80;20235;-76
2021/04/05 09:53:17;;;;;;;;;;;;;;;9.23;46.31;99579.77;1767414;80;20465;-77
2021/04/05 09:55:47;;;;;;;;;;;;;;;9.17;46.14;99576.71;1769675;80;20216;-79
2021/04/05 09:58:23;;;;;;;;;;;;;;;9.11;45.80;99576.39;1769420;79;22953;-78
2021/04/05 10:00:53;;;;;;;;;;;;;;;9.03;44.40;99568.31;1790218;79;20240;-77
2021/04/05 10:03:21;;;;;;;;;;;;;;;8.98;44.95;99570.03;1769007;80;20213;-79
2021/04/05 10:05:49;;;;;;;;;;;;;;;9.03;44.92;99563.05;1780914;80;20535;-78
2021/04/05 10:08:26;;;;;;;;;;;;;;;9.03;44.31;99563.88;1789575;79;20569;-80
2021/04/05 10:10:55;;;;;;;;;;;;;;;9.13;43.27;99563.92;1775533;79;22069;-80
2021/04/05 10:13:24;;;;;;;;;;;;;;;9.25;43.66;99560.21;1769647;79;20385;-82
2021/04/05 10:15:54;;;;;;;;;;;;;;;9.44;42.96;99559.44;1789160;79;20397;-79
2021/04/05 10:18:21;;;;;;;;;;;;;;;9.53;42.97;99554.69;1749327;79;21836;-78
2021/04/05 10:20:50;;;;;;;;;;;;;;;9.70;42.25;99552.72;1778163;79;20248;-78
2021/04/05 10:23:21;;;;;;;;;;;;;;;9.82;41.19;99549.47;1770013;79;22969;-78
2021/04/05 10:25:57;;;;;;;;;;;;;;;9.78;40.90;99547.25;1767979;79;21350;-79
2021/04/05 10:28:24;;;;;;;;;;;;;;;9.77;41.13;99542.95;1780326;79;20215;-76
2021/04/05 10:30:54;;;;;;;;;;;;;;;9.81;41.15;99538.56;1772374;79;20308;-77
2021/04/05 10:33:24;;;;;;;;;;;;;;;9.82;41.58;99537.59;1766707;81;20492;-78
2021/04/05 10:35:55;;;;;;;;;;;;;;;9.82;41.96;99533.64;1768576;79;22062;-78
2021/04/05 10:38:23;;;;;;;;;;;;;;;9.86;41.83;99532.41;1774596;79;20224;-77
2021/04/05 10:40:51;;;;;;;;;;;;;;;9.91;41.88;99526.70;1726646;79;20218;-77
2021/04/05 10:43:42;;;;;;;;;;;;;;;10.07;41.55;99520.41;1773734;79;20463;-76
2021/04/05 10:46:16;;;;;;;;;;;;;;;10.27;41.57;99512.84;1767167;79;20299;-76
2021/04/05 10:48:58;;;;;;;;;;;;;;;10.44;40.97;99514.43;1766762;79;22081;-77
2021/04/05 10:51:29;;;;;;;;;;;;;;;10.48;41.12;99499.95;1773189;79;20384;-76
2021/04/05 10:54:30;;;;;;;;;;;;;;;10.58;41.60;99502.09;1774439;79;20221;-77
2021/04/05 10:57:01;;;;;;;;;;;;;;;10.66;41.73;99500.05;1734502;80;20539;-78
2021/04/05 10:59:40;;;;;;;;;;;;;;;10.85;41.15;99488.94;1758250;80;20259;-78
2021/04/05 11:02:12;;;;;;;;;;;;;;;11.10;41.07;99488.77;1760953;80;21894;-77
2021/04/05 11:04:39;;;;;;;;;;;;;;;11.39;40.47;99485.13;1765188;80;20239;-78
2021/04/05 11:07:07;;;;;;;;;;;;;;;11.63;38.78;99484.05;1758219;80;20213;-77
2021/04/05 11:09:40;;;;;;;;;;;;;;;11.74;38.70;99484.31;1738392;80;20736;-78
2021/04/05 11:12:09;;;;;;;;;;;;;;;11.96;38.43;99478.59;1763645;80;20244;-78
2021/04/05 11:14:36;;;;;;;;;;;;;;;12.19;37.56;99471.51;1759259;80;22074;-78
2021/04/05 11:17:04;;;;;;;;;;;;;;;12.34;38.17;99464.65;1759473;81;20228;-77
2021/04/05 11:19:48;;;;;;;;;;;;;;;12.47;36.44;99459.79;1752676;80;20485;-78
2021/04/05 11:22:16;;;;;;;;;;;;;;;12.46;35.82;99458.13;1722277;81;20315;-79
2021/04/05 11:24:43;;;;;;;;;;;;;;;12.49;36.39;99449.86;1764036;80;20210;-78
2021/04/05 11:27:12;;;;;;;;;;;;;;;12.59;35.86;99454.56;1749528;81;21958;-77
2021/04/05 11:29:42;;;;;;;;;;;;;;;12.50;34.72;99451.52;1761882;80;21047;-77
2021/04/05 11:32:09;;;;;;;;;;;;;;;12.20;35.65;99448.84;1765073;80;20425;-78
2021/04/05 11:34:40;;;;;;;;;;;;;;;12.09;35.26;99450.92;1750983;80;20321;-77
2021/04/05 11:37:14;;;;;;;;;;;;;;;11.94;35.85;99444.01;1745947;81;20218;-78
2021/04/05 11:39:48;;;;;;;;;;;;;;;11.81;36.38;99443.58;1764603;80;22934;-77
2021/04/05 11:42:15;;;;;;;;;;;;;;;11.64;36.40;99443.88;1718069;81;20487;-76
2021/04/05 11:44:47;;;;;;;;;;;;;;;11.45;36.72;99444.36;1765446;79;20909;-78
2021/04/05 11:47:15;;;;;;;;;;;;;;;11.43;36.71;99445.02;1766329;79;20506;-77
2021/04/05 11:49:42;;;;;;;;;;;;;;;11.37;37.80;99437.66;1740669;81;20398;-78
2021/04/05 11:52:19;;;;;;;;;;;;;;;11.25;37.86;99434.90;1712387;82;22985;-78
2021/04/05 11:54:55;;;;;;;;;;;;;;;11.01;38.43;99429.36;1737539;80;20376;-76
2021/04/05 11:57:32;;;;;;;;;;;;;;;10.76;38.49;99429.05;1741367;80;20266;-76
2021/04/05 12:00:06;;;;;;;;;;;;;;;10.55;39.06;99429.28;1716377;80;20530;-77
2021/04/05 12:02:48;;;;;;;;;;;;;;;10.42;39.96;99430.10;1739411;82;20268;-75
2021/04/05 12:05:30;;;;;;;;;;;;;;;10.41;39.61;99427.58;1730947;83;23503;-76
2021/04/05 12:08:02;;;;;;;;;;;;;;;10.27;39.96;99430.20;1733004;82;20356;-76
2021/04/05 12:10:29;;;;;;;;;;;;;;;10.28;40.07;99419.98;1750415;81;20716;-77
2021/04/05 12:12:59;;;;;;;;;;;;;;;10.34;39.74;99410.19;1724545;81;20480;-76
2021/04/05 12:15:27;;;;;;;;;;;;;;;10.29;39.93;99409.28;1760494;81;20210;-75
2021/04/05 12:17:54;;;;;;;;;;;;;;;10.31;39.85;99413.09;1751845;80;22813;-76
2021/04/05 12:20:27;;;;;;;;;;;;;;;10.31;39.66;99411.77;1744558;82;20381;-75
2021/04/05 12:23:01;;;;;;;;;;;;;;;10.38;39.77;99411.55;1760939;81;20406;-76
2021/04/05 12:25:41;;;;;;;;;;;;;;;10.45;39.39;99406.53;1748981;80;21613;-79
2021/04/05 12:28:10;;;;;;;;;;;;;;;10.58;39.09;99405.22;1744638;80;20402;-80
2021/04/05 12:30:38;;;;;;;;;;;;;;;10.66;38.58;99401.85;1745180;80;21957;-79
2021/04/05 12:33:06;;;;;;;;;;;;;;;10.67;39.36;99404.83;1752789;80;21163;-76
2021/04/05 12:35:36;;;;;;;;;;;;;;;10.72;39.53;99410.52;1748805;80;20309;-76
2021/04/05 12:38:05;;;;;;;;;;;;;;;10.77;39.91;99406.94;1760471;80;20304;-77
2021/04/05 12:40:35;;;;;;;;;;;;;;;10.76;39.73;99404.45;1752177;80;20300;-77
2021/04/05 12:43:11;;;;;;;;;;;;;;;10.70;39.60;99401.06;1747618;81;21336;-76
2021/04/05 12:45:51;;;;;;;;;;;;;;;10.61;39.30;99400.13;1749846;80;20321;-80
2021/04/05 12:48:25;;;;;;;;;;;;;;;10.64;39.65;99401.17;1747499;80;20279;-78
2021/04/05 12:50:59;;;;;;;;;;;;;;;10.69;39.85;99395.44;1743642;81;20702;-78
2021/04/05 12:53:28;;;;;;;;;;;;;;;10.74;39.67;99397.17;1742048;80;20494;-79
2021/04/05 12:55:56;;;;;;;;;;;;;;;10.75;39.56;99390.91;1740101;80;22018;-78
2021/04/05 12:58:27;;;;;;;;;;;;;;;10.75;39.19;99388.27;1738654;80;21290;-78
2021/04/05 13:00:55;;;;;;;;;;;;;;;10.67;38.70;99394.27;1752736;80;20286;-79
2021/04/05 13:03:43;;;;;;;;;;;;;;;10.62;38.82;99391.74;1732151;81;20280;-77
2021/04/05 13:06:17;;;;;;;;;;;;;;;10.55;38.70;99391.48;1739536;81;20284;-78
2021/04/05 13:09:03;;;;;;;;;;;;;;;10.45;38.45;99388.88;1741619;81;21922;-79
2021/04/05 13:11:37;;;;;;;;;;;;;;;10.39;38.93;99386.81;1741784;81;20345;-77
2021/04/05 13:14:15;;;;;;;;;;;;;;;10.31;38.80;99377.45;1739488;81;20272;-76
2021/04/05 13:16:53;;;;;;;;;;;;;;;10.20;38.45;99377.61;1738746;81;20313;-75
2021/04/05 13:19:25;;;;;;;;;;;;;;;10.10;38.96;99372.84;1735886;81;20221;-77
2021/04/05 13:21:52;;;;;;;;;;;;;;;10.08;39.15;99370.84;1736602;81;22050;-80
2021/04/05 13:24:24;;;;;;;;;;;;;;;10.08;39.58;99369.53;1747800;81;20350;-79
2021/04/05 13:26:55;;;;;;;;;;;;;;;10.10;39.27;99371.04;1733348;81;20264;-75
2021/04/05 13:29:27;;;;;;;;;;;;;;;10.09;39.44;99372.02;1733307;81;20537;-80
2021/04/05 13:31:56;;;;;;;;;;;;;;;10.11;39.48;99378.47;1728644;81;20271;-79
2021/04/05 13:34:29;;;;;;;;;;;;;;;10.09;39.54;99377.78;1734202;81;22061;-78